Time;durP1;ratioP1;P1;durP2;ratioP2;P2;SDS_P1;SDS_P2;PMS_P1;PMS_P2;Temp;Humidity;BMP_temperature;BMP_pressure;BME280_temperature;BME280_humidity;BME280_pressure;Samples;Min_cycle;Max_cycle;Signal;HPM_P1;HPM_P2
2022/11/05 00:10:17;;;;;;;18.52;12.32;;;;;;;7.53;100.00;101452.41;5109297;28;20043;-65
2022/11/05 00:18:11;;;;;;;18.08;11.38;;;;;;;7.22;100.00;101445.38;5107958;28;20100;-65
2022/11/05 00:20:36;;;;;;;21.67;14.77;;;;;;;7.16;100.00;101465.28;5105126;28;20616;-64
2022/11/05 00:25:54;;;;;;;19.50;14.00;;;;;;;7.02;100.00;101467.00;5105118;28;20208;-65
2022/11/05 00:28:19;;;;;;;20.48;13.43;;;;;;;6.95;100.00;101474.28;5108725;28;20399;-65
2022/11/05 00:30:44;;;;;;;19.17;11.27;;;;;;;6.89;100.00;101466.00;5102948;28;20035;-65
2022/11/05 00:33:09;;;;;;;16.20;10.88;;;;;;;6.85;100.00;101465.53;5098227;28;20426;-65
2022/11/05 00:35:35;;;;;;;15.88;10.60;;;;;;;6.80;100.00;101469.88;5089167;28;20043;-64
2022/11/05 00:38:00;;;;;;;16.55;10.90;;;;;;;6.76;100.00;101472.16;5098191;28;20020;-65
2022/11/05 00:40:25;;;;;;;15.18;10.93;;;;;;;6.71;100.00;101475.44;5107759;28;20031;-65
2022/11/05 00:45:36;;;;;;;17.80;11.30;;;;;;;6.63;100.00;101477.41;5108669;28;20084;-65
2022/11/05 00:50:45;;;;;;;18.27;11.68;;;;;;;6.57;100.00;101487.22;5109378;28;20070;-65
2022/11/05 00:53:10;;;;;;;22.50;14.27;;;;;;;6.53;100.00;101485.88;5108208;28;20035;-65
2022/11/05 00:55:41;;;;;;;23.13;13.38;;;;;;;6.48;100.00;101486.44;5109156;28;20024;-65
2022/11/05 00:58:12;;;;;;;21.38;13.68;;;;;;;6.42;100.00;101487.22;5107380;28;20432;-65
2022/11/05 01:00:39;;;;;;;17.17;11.68;;;;;;;6.40;100.00;101491.19;5102579;27;20028;-64
2022/11/05 01:03:07;;;;;;;17.95;12.52;;;;;;;6.38;100.00;101487.78;5106401;28;20031;-65
2022/11/05 01:05:36;;;;;;;18.05;12.10;;;;;;;6.34;100.00;101492.78;5108892;28;20097;-65
2022/11/05 01:08:02;;;;;;;19.23;12.75;;;;;;;6.36;100.00;101498.03;5107497;28;20035;-65
2022/11/05 01:10:28;;;;;;;17.90;13.75;;;;;;;6.32;100.00;101497.56;5107255;28;20411;-65
2022/11/05 01:12:53;;;;;;;21.17;13.15;;;;;;;6.31;100.00;101495.03;5106475;28;20070;-64
2022/11/05 01:15:19;;;;;;;22.20;13.60;;;;;;;6.34;100.00;101502.84;5108063;28;20056;-65
2022/11/05 01:17:44;;;;;;;19.45;13.52;;;;;;;6.31;100.00;101503.19;5106684;28;20050;-65
2022/11/05 01:20:10;;;;;;;18.77;12.45;;;;;;;6.30;100.00;101506.97;5106878;28;20077;-65
2022/11/05 01:22:35;;;;;;;17.98;12.82;;;;;;;6.27;100.00;101512.78;5107624;28;20528;-65
2022/11/05 01:25:01;;;;;;;19.77;13.23;;;;;;;6.28;100.00;101518.03;5106549;28;20463;-64
2022/11/05 01:27:26;;;;;;;19.42;13.23;;;;;;;6.25;100.00;101518.44;5107923;28;20070;-65
2022/11/05 01:29:51;;;;;;;19.05;12.50;;;;;;;6.22;100.00;101522.38;5106999;28;20036;-64
2022/11/05 01:32:16;;;;;;;17.55;13.35;;;;;;;6.21;100.00;101537.03;5107142;28;20466;-64
2022/11/05 01:34:42;;;;;;;18.88;13.85;;;;;;;6.21;100.00;101531.59;5098713;28;20034;-65
2022/11/05 01:37:07;;;;;;;19.48;12.88;;;;;;;6.20;100.00;101535.34;5087453;28;20036;-64
2022/11/05 01:39:32;;;;;;;16.92;13.43;;;;;;;6.24;100.00;101538.56;5096022;28;20350;-64
2022/11/05 01:41:58;;;;;;;16.90;13.07;;;;;;;6.21;100.00;101536.19;5103397;28;20371;-65
2022/11/05 01:44:51;;;;;;;19.17;13.18;;;;;;;6.24;100.00;101547.59;5107663;28;20023;-65
2022/11/05 01:47:30;;;;;;;20.30;13.55;;;;;;;6.22;100.00;101538.75;5108419;28;20033;-64
2022/11/05 01:49:59;;;;;;;24.40;13.75;;;;;;;6.20;100.00;101538.09;5105485;28;20068;-65
2022/11/05 01:52:25;;;;;;;;;;;;;;;6.28;100.00;101533.56;5104435;28;20470;-65
2022/11/05 01:54:51;;;;;;;21.27;14.40;;;;;;;6.18;100.00;101539.28;5107761;28;19912;-65
2022/11/05 01:57:17;;;;;;;20.42;14.27;;;;;;;6.12;100.00;101532.69;5106137;28;20070;-65
2022/11/05 01:59:51;;;;;;;19.48;14.25;;;;;;;6.12;100.00;101531.84;5106974;28;20110;-65
2022/11/05 02:02:17;;;;;;;19.48;13.32;;;;;;;6.08;100.00;101536.81;5108311;28;20027;-65
2022/11/05 02:04:47;;;;;;;16.88;13.25;;;;;;;6.03;100.00;101531.06;5107550;28;20382;-64
2022/11/05 02:07:13;;;;;;;19.98;13.15;;;;;;;6.04;100.00;101521.03;5108072;28;20055;-65
2022/11/05 02:09:51;;;;;;;21.33;12.05;;;;;;;6.06;100.00;101524.41;5105996;28;20059;-65
2022/11/05 02:12:17;;;;;;;18.95;12.55;;;;;;;5.98;100.00;101519.88;5106301;28;20062;-65
2022/11/05 02:14:42;;;;;;;18.63;11.80;;;;;;;5.95;100.00;101517.53;5105752;28;20083;-65
2022/11/05 02:17:34;;;;;;;17.33;11.05;;;;;;;5.97;100.00;101527.19;5104983;28;21800;-65
2022/11/05 02:20:28;;;;;;;17.67;11.73;;;;;;;5.90;100.00;101522.66;5056975;28;20047;-65
2022/11/05 02:23:10;;;;;;;16.83;11.55;;;;;;;5.91;100.00;101525.22;5012867;28;20603;-65
2022/11/05 02:25:59;;;;;;;15.13;10.73;;;;;;;5.85;100.00;101525.09;5087599;28;20158;-65
2022/11/05 02:28:27;;;;;;;17.50;10.50;;;;;;;5.84;100.00;101523.41;5104275;28;20024;-65
2022/11/05 02:31:01;;;;;;;18.88;11.65;;;;;;;5.80;100.00;101528.34;5096127;28;20040;-65
2022/11/05 02:33:47;;;;;;;15.73;10.35;;;;;;;5.78;100.00;101521.38;5086993;28;20028;-65
2022/11/05 02:36:31;;;;;;;14.65;11.07;;;;;;;5.74;100.00;101520.91;5107029;28;20043;-65
2022/11/05 02:39:20;;;;;;;16.48;10.85;;;;;;;5.70;100.00;101519.56;5101767;28;20032;-65
2022/11/05 02:41:51;;;;;;;17.48;11.05;;;;;;;5.68;100.00;101516.19;5097836;28;20060;-65
2022/11/05 02:44:27;;;;;;;18.40;11.10;;;;;;;5.65;100.00;101511.94;5104822;28;20429;-65
2022/11/05 02:47:10;;;;;;;17.60;10.52;;;;;;;5.63;100.00;101515.91;5087026;28;20051;-65
2022/11/05 02:50:12;;;;;;;14.27;11.18;;;;;;;5.60;100.00;101519.81;5092683;28;20401;-65
2022/11/05 02:53:08;;;;;;;16.13;10.20;;;;;;;5.59;100.00;101515.41;5101479;28;20511;-65
2022/11/05 02:55:52;;;;;;;16.50;9.90;;;;;;;5.57;100.00;101514.72;5107424;28;20080;-65
2022/11/05 02:58:18;;;;;;;13.65;10.35;;;;;;;5.53;100.00;101513.41;5104701;28;20032;-65
2022/11/05 03:00:50;;;;;;;17.83;10.07;;;;;;;5.51;100.00;101512.72;5107742;28;20411;-65
2022/11/05 03:03:27;;;;;;;17.35;9.95;;;;;;;5.49;100.00;101506.63;5107081;28;20043;-64
2022/11/05 03:06:38;;;;;;;16.20;9.57;;;;;;;5.52;100.00;101514.41;5106276;28;20427;-65
2022/11/05 03:09:39;;;;;;;20.58;10.10;;;;;;;5.46;100.00;101509.69;5097708;28;20063;-65
2022/11/05 03:12:23;;;;;;;17.80;10.73;;;;;;;5.45;100.00;101511.56;5097891;28;20494;-65
2022/11/05 03:15:15;;;;;;;17.05;10.48;;;;;;;5.44;100.00;101511.75;5105920;28;20047;-65
2022/11/05 03:18:18;;;;;;;17.83;10.48;;;;;;;5.40;100.00;101519.44;5088039;28;20031;-65
2022/11/05 03:20:53;;;;;;;18.92;11.02;;;;;;;5.37;100.00;101517.09;5103469;28;20472;-65
2022/11/05 03:23:40;;;;;;;15.25;10.48;;;;;;;5.36;100.00;101529.00;5107826;28;20031;-66
2022/11/05 03:26:23;;;;;;;16.45;10.88;;;;;;;5.34;100.00;101524.78;5110877;28;20390;-65
2022/11/05 03:28:57;;;;;;;14.77;11.40;;;;;;;5.35;100.00;101518.28;5109785;28;20655;-66
2022/11/05 03:31:24;;;;;;;17.85;10.98;;;;;;;5.30;100.00;101523.44;5092307;28;20100;-65
2022/11/05 03:33:52;;;;;;;19.35;12.02;;;;;;;5.31;100.00;101516.94;5106158;28;20084;-66
2022/11/05 03:36:24;;;;;;;16.13;11.32;;;;;;;5.30;100.00;101520.72;5110396;28;20080;-65
2022/11/05 03:38:52;;;;;;;18.63;11.48;;;;;;;5.29;100.00;101519.00;5109748;28;20075;-65
2022/11/05 03:41:20;;;;;;;19.15;11.38;;;;;;;5.25;100.00;101525.84;5109168;28;20458;-65
2022/11/05 03:43:50;;;;;;;17.75;12.30;;;;;;;5.26;100.00;101522.94;5109649;28;20031;-65
2022/11/05 03:46:25;;;;;;;19.60;12.55;;;;;;;5.25;100.00;101523.13;5110215;28;20020;-64
2022/11/05 03:48:54;;;;;;;18.55;12.27;;;;;;;5.24;100.00;101524.16;5110244;28;20048;-65
2022/11/05 03:51:41;;;;;;;19.55;13.10;;;;;;;5.23;100.00;101525.19;5097533;28;20032;-65
2022/11/05 03:54:08;;;;;;;19.52;12.52;;;;;;;5.21;100.00;101533.50;5107304;28;20074;-65
2022/11/05 03:56:39;;;;;;;20.65;13.02;;;;;;;5.17;100.00;101530.31;5108563;28;20020;-65
2022/11/05 03:59:07;;;;;;;20.33;13.85;;;;;;;5.18;100.00;101531.16;5109328;28;20032;-64
2022/11/05 04:01:35;;;;;;;17.40;12.98;;;;;;;5.19;100.00;101535.59;5109816;28;20390;-65
2022/11/05 04:04:01;;;;;;;20.10;13.65;;;;;;;5.18;100.00;101531.16;5107578;28;20038;-65
2022/11/05 04:14:42;;;;;;;18.92;13.00;;;;;;;5.08;100.00;101536.84;5109195;28;20135;-65
2022/11/05 04:17:10;;;;;;;19.77;13.95;;;;;;;5.08;100.00;101536.84;5108492;28;21013;-65
2022/11/05 04:25:06;;;;;;;19.38;14.20;;;;;;;5.05;100.00;101542.63;5109551;28;20057;-65
2022/11/05 04:27:32;;;;;;;19.80;13.75;;;;;;;5.01;100.00;101551.31;5108654;28;20028;-65
2022/11/05 04:32:41;;;;;;;22.08;14.85;;;;;;;4.96;100.00;101554.56;5106486;28;20046;-65
2022/11/05 04:35:06;;;;;;;21.55;14.60;;;;;;;4.94;100.00;101548.47;5088877;28;20028;-65
2022/11/05 04:37:32;;;;;;;21.42;15.73;;;;;;;4.95;100.00;101558.31;5099694;28;20054;-65
2022/11/05 04:39:57;;;;;;;20.75;16.00;;;;;;;4.93;100.00;101550.34;5109301;28;20063;-64
2022/11/05 04:42:22;;;;;;;27.65;16.35;;;;;;;4.96;100.00;101551.84;5105628;28;20035;-65
2022/11/05 04:44:47;;;;;;;22.88;16.92;;;;;;;4.98;100.00;101552.53;5089456;28;20445;-64
2022/11/05 04:47:13;;;;;;;25.25;16.67;;;;;;;4.97;100.00;101552.69;5103557;28;20034;-64
2022/11/05 04:49:38;;;;;;;21.67;17.15;;;;;;;4.97;100.00;101555.41;5109423;28;20027;-65
2022/11/05 04:52:03;;;;;;;24.48;16.60;;;;;;;4.94;100.00;101562.06;5106430;28;20036;-65
2022/11/05 04:54:29;;;;;;;24.55;17.83;;;;;;;4.93;100.00;101561.22;5108461;28;20123;-65
2022/11/05 04:56:54;;;;;;;27.00;17.83;;;;;;;4.93;100.00;101558.50;5107710;28;20028;-65
2022/11/05 04:59:20;;;;;;;24.58;18.92;;;;;;;4.94;100.00;101562.91;5108404;28;20059;-65
2022/11/05 05:01:45;;;;;;;23.52;18.17;;;;;;;4.94;100.00;101552.03;5106155;28;20066;-64
2022/11/05 05:04:10;;;;;;;24.98;18.20;;;;;;;4.93;100.00;101561.22;5107874;28;20081;-65
2022/11/05 05:06:37;;;;;;;24.80;17.85;;;;;;;4.90;100.00;101560.72;5108676;28;20035;-65
2022/11/05 05:09:02;;;;;;;24.30;18.38;;;;;;;4.91;100.00;101571.41;5106788;28;20036;-65
2022/11/05 05:11:27;;;;;;;26.38;18.42;;;;;;;4.91;100.00;101573.31;5093506;28;20101;-65
2022/11/05 05:13:53;;;;;;;30.70;18.98;;;;;;;4.89;100.00;101568.03;5104365;28;20094;-65
2022/11/05 05:16:24;;;;;;;23.17;18.60;;;;;;;4.88;100.00;101573.66;5107434;28;20481;-65
2022/11/05 05:18:50;;;;;;;28.83;18.90;;;;;;;4.86;100.00;101571.09;5107794;28;20040;-65
2022/11/05 05:24:01;;;;;;;23.52;19.27;;;;;;;4.82;100.00;101579.81;5105381;28;20042;-65
2022/11/05 05:26:27;;;;;;;26.70;19.35;;;;;;;4.82;100.00;101579.81;5107198;28;20035;-65
2022/11/05 05:28:53;;;;;;;26.98;18.30;;;;;;;4.79;100.00;101586.44;5106608;28;20371;-64
2022/11/05 05:31:19;;;;;;;24.60;18.30;;;;;;;4.77;100.00;101582.22;5108875;28;20035;-65
2022/11/05 05:33:44;;;;;;;23.73;17.85;;;;;;;4.75;100.00;101581.53;5107813;28;20040;-65
2022/11/05 05:36:09;;;;;;;27.77;18.50;;;;;;;4.77;100.00;101584.94;5107866;28;20122;-65
2022/11/05 05:38:35;;;;;;;25.50;18.65;;;;;;;4.77;100.00;101579.50;5107989;28;20034;-65
2022/11/05 05:41:00;;;;;;;24.70;18.55;;;;;;;4.74;100.00;101583.41;5102893;28;20545;-64
2022/11/05 05:43:32;;;;;;;25.55;19.58;;;;;;;4.74;100.00;101586.13;5101240;27;20065;-65
2022/11/05 05:46:06;;;;;;;26.98;19.38;;;;;;;4.74;100.00;101588.00;5087479;28;20027;-64
2022/11/05 05:48:32;;;;;;;25.20;18.02;;;;;;;4.76;100.00;101585.94;5086773;28;20036;-65
2022/11/05 05:51:02;;;;;;;25.15;18.40;;;;;;;4.73;100.00;101578.13;5093946;28;20529;-65
2022/11/05 05:53:28;;;;;;;24.52;18.33;;;;;;;4.76;100.00;101581.34;5105894;28;20085;-65
2022/11/05 05:55:54;;;;;;;33.33;20.63;;;;;;;4.79;100.00;101585.59;5104743;28;20462;-65
2022/11/05 05:58:20;;;;;;;27.70;19.65;;;;;;;4.81;100.00;101586.25;5107703;28;20627;-65
2022/11/05 06:00:45;;;;;;;25.27;18.90;;;;;;;4.80;100.00;101590.84;5102851;28;20059;-65
2022/11/05 06:03:11;;;;;;;24.58;19.17;;;;;;;4.78;100.00;101587.47;5092218;28;20024;-65
2022/11/05 06:05:36;;;;;;;25.23;18.80;;;;;;;4.78;100.00;101592.06;5106873;28;20035;-65
2022/11/05 06:08:01;;;;;;;24.23;18.92;;;;;;;4.75;100.00;101586.97;5106088;28;20028;-65
2022/11/05 06:10:27;;;;;;;24.02;18.50;;;;;;;4.73;100.00;101595.31;5106520;28;20027;-65
2022/11/05 06:12:52;;;;;;;30.90;19.23;;;;;;;4.71;100.00;101591.06;5105544;28;20027;-65
2022/11/05 06:15:17;;;;;;;26.40;18.70;;;;;;;4.73;100.00;101591.75;5108240;28;20096;-65
2022/11/05 06:17:43;;;;;;;23.73;19.40;;;;;;;4.73;100.00;101598.03;5106351;28;20020;-65
2022/11/05 06:20:10;;;;;;;25.75;19.30;;;;;;;4.74;100.00;101601.59;5107649;28;20379;-65
2022/11/05 06:22:35;;;;;;;29.02;18.98;;;;;;;4.71;100.00;101596.50;5107413;28;20502;-65
2022/11/05 06:25:01;;;;;;;27.33;18.25;;;;;;;4.68;100.00;101597.72;5103916;28;20054;-65
2022/11/05 06:27:27;;;;;;;27.73;19.02;;;;;;;4.67;100.00;101604.19;5104199;28;20063;-65
2022/11/05 06:29:52;;;;;;;26.42;18.58;;;;;;;4.65;100.00;101596.16;5105347;28;20406;-65
2022/11/05 06:32:18;;;;;;;24.65;18.63;;;;;;;4.65;100.00;101603.47;5106957;28;20032;-65
2022/11/05 06:34:43;;;;;;;31.20;20.10;;;;;;;4.64;100.00;101602.63;5107682;28;20058;-65
2022/11/05 06:37:08;;;;;;;27.38;18.80;;;;;;;4.64;100.00;101604.50;5105412;28;20032;-65
2022/11/05 06:39:33;;;;;;;27.05;19.52;;;;;;;4.64;100.00;101599.91;5106867;28;20485;-65
2022/11/05 06:41:59;;;;;;;29.17;20.67;;;;;;;4.61;100.00;101603.00;5105950;28;20062;-65
2022/11/05 06:44:24;;;;;;;26.02;19.45;;;;;;;4.63;100.00;101603.66;5106399;28;20030;-65
2022/11/05 06:46:49;;;;;;;24.60;19.58;;;;;;;4.63;100.00;101603.66;5106117;28;20367;-65
2022/11/05 06:49:14;;;;;;;27.05;19.73;;;;;;;4.62;100.00;101612.84;5107747;28;20099;-65
2022/11/05 06:51:40;;;;;;;26.13;19.92;;;;;;;4.61;100.00;101611.16;5100852;28;20127;-65
2022/11/05 06:54:05;;;;;;;27.80;19.55;;;;;;;4.63;100.00;101609.09;5098617;28;20047;-65
2022/11/05 06:56:30;;;;;;;24.38;19.52;;;;;;;4.63;100.00;101603.66;5096726;28;20024;-65
2022/11/05 06:58:55;;;;;;;27.05;18.55;;;;;;;4.63;100.00;101614.56;5110999;28;20031;-66
2022/11/05 07:01:22;;;;;;;27.30;18.60;;;;;;;4.63;100.00;101613.69;5106035;28;20414;-65
2022/11/05 07:03:48;;;;;;;25.30;18.20;;;;;;;4.63;100.00;101608.25;5091671;28;20032;-65
2022/11/05 07:06:13;;;;;;;25.10;18.42;;;;;;;4.64;100.00;101615.41;5095032;28;20367;-65
2022/11/05 07:08:39;;;;;;;23.25;17.85;;;;;;;4.66;100.00;101621.50;5109308;28;20042;-65
2022/11/05 07:11:05;;;;;;;24.77;17.70;;;;;;;4.67;100.00;101625.94;5108442;28;20123;-65
2022/11/05 07:13:30;;;;;;;22.50;18.30;;;;;;;4.69;100.00;101629.31;5107981;28;20397;-65
2022/11/05 07:15:56;;;;;;;22.70;18.77;;;;;;;4.71;100.00;101631.88;5109003;28;20032;-65
2022/11/05 07:18:21;;;;;;;23.27;19.25;;;;;;;4.72;100.00;101626.28;5110966;28;20019;-66
2022/11/05 07:20:48;;;;;;;28.23;18.20;;;;;;;4.80;100.00;101630.84;5110520;28;20027;-65
2022/11/05 07:23:13;;;;;;;24.95;17.65;;;;;;;4.86;100.00;101624.69;5101311;27;20028;-66
2022/11/05 07:25:40;;;;;;;26.10;19.33;;;;;;;4.89;100.00;101633.38;5089902;28;20035;-65
2022/11/05 07:28:05;;;;;;;22.73;18.60;;;;;;;4.94;100.00;101632.84;5108201;28;20039;-66
2022/11/05 07:30:32;;;;;;;24.33;18.10;;;;;;;5.07;100.00;101638.59;5096244;28;20027;-65
2022/11/05 07:32:58;;;;;;;24.50;17.42;;;;;;;5.10;100.00;101635.50;5102455;28;20428;-65
2022/11/05 07:35:23;;;;;;;23.05;16.80;;;;;;;5.15;100.00;101634.97;5109583;28;20065;-65
2022/11/05 07:37:50;;;;;;;22.83;17.27;;;;;;;5.15;100.00;101646.72;5104264;28;20020;-66
2022/11/05 07:40:18;;;;;;;25.63;17.25;;;;;;;5.18;100.00;101656.44;5090456;28;20159;-65
2022/11/05 07:42:45;;;;;;;21.60;16.17;;;;;;;5.21;100.00;101647.88;5094194;28;20031;-65
2022/11/05 07:45:11;;;;;;;20.50;16.02;;;;;;;5.26;100.00;101652.81;5109957;28;20050;-65
2022/11/05 07:47:38;;;;;;;21.85;15.98;;;;;;;5.30;100.00;101656.88;5109630;28;20082;-65
2022/11/05 07:50:04;;;;;;;20.63;15.07;;;;;;;5.37;100.00;101655.16;5108651;28;20097;-65
2022/11/05 07:52:32;;;;;;;18.88;15.65;;;;;;;5.42;100.00;101653.63;5107932;28;20046;-64
2022/11/05 07:54:58;;;;;;;23.70;15.75;;;;;;;5.50;100.00;101655.44;5109924;28;20088;-65
2022/11/05 07:57:23;;;;;;;23.70;15.77;;;;;;;5.55;100.00;101653.03;5107404;28;20254;-65
2022/11/05 07:59:48;;;;;;;21.23;15.60;;;;;;;5.65;100.00;101652.81;5109906;28;20031;-66
2022/11/05 08:02:13;;;;;;;20.65;14.63;;;;;;;5.75;100.00;101658.03;5109973;28;20034;-66
2022/11/05 08:04:41;;;;;;;22.73;14.52;;;;;;;5.82;100.00;101653.56;5109533;28;20385;-68
2022/11/05 08:07:06;;;;;;;23.40;15.60;;;;;;;6.02;100.00;101653.97;5107942;28;20089;-73
2022/11/05 08:09:32;;;;;;;23.02;17.52;;;;;;;6.43;100.00;101649.88;5092691;28;20032;-67
2022/11/05 08:11:57;;;;;;;22.65;15.82;;;;;;;6.73;100.00;101658.16;5090242;28;20055;-67
2022/11/05 08:14:22;;;;;;;19.92;13.45;;;;;;;6.84;100.00;101665.88;5096040;28;20040;-67
2022/11/05 08:16:47;;;;;;;22.40;13.88;;;;;;;6.90;100.00;101650.66;5109947;28;20430;-67
2022/11/05 08:19:13;;;;;;;20.15;14.00;;;;;;;6.90;100.00;101656.97;5099325;28;20043;-67
2022/11/05 08:21:38;;;;;;;20.30;13.63;;;;;;;6.93;100.00;101651.09;5090536;28;20447;-67
2022/11/05 08:24:03;;;;;;;18.55;13.45;;;;;;;7.08;100.00;101640.19;5088022;28;20074;-67
2022/11/05 08:26:29;;;;;;;20.15;13.57;;;;;;;7.27;100.00;101650.56;5088195;28;20047;-67
2022/11/05 08:28:54;;;;;;;18.15;13.45;;;;;;;7.42;100.00;101646.97;5104222;28;20489;-67
2022/11/05 08:31:19;;;;;;;20.35;13.52;;;;;;;7.58;100.00;101652.22;5107064;28;20036;-67
2022/11/05 08:33:44;;;;;;;18.42;13.48;;;;;;;8.17;98.57;101652.03;5107550;28;20591;-66
2022/11/05 08:36:10;;;;;;;17.92;12.30;;;;;;;9.33;93.13;101645.16;5107891;28;20041;-67
2022/11/05 08:38:35;;;;;;;18.98;12.02;;;;;;;10.25;87.51;101651.19;5108183;27;20062;-67
2022/11/05 08:41:01;;;;;;;16.20;11.25;;;;;;;11.15;81.76;101647.78;5107738;28;20036;-67
2022/11/05 08:43:26;;;;;;;14.80;10.60;;;;;;;12.40;76.88;101640.00;5109015;28;20355;-67
2022/11/05 08:45:51;;;;;;;15.73;9.55;;;;;;;12.89;72.87;101641.06;5108742;28;20027;-67
2022/11/05 08:48:17;;;;;;;17.23;10.57;;;;;;;13.21;70.43;101641.81;5108574;28;20077;-67
2022/11/05 08:50:44;;;;;;;14.57;9.88;;;;;;;14.02;67.50;101643.34;5108848;28;20072;-67
2022/11/05 08:53:11;;;;;;;12.48;9.27;;;;;;;14.88;64.23;101640.31;5108014;28;20040;-67
2022/11/05 08:55:37;;;;;;;15.35;9.68;;;;;;;15.70;61.49;101645.78;5107775;28;20071;-67
2022/11/05 08:58:05;;;;;;;15.13;9.20;;;;;;;16.44;57.62;101643.06;5108103;28;20403;-67
2022/11/05 09:00:33;;;;;;;15.93;10.27;;;;;;;17.26;55.88;101650.78;5108801;28;20059;-67
2022/11/05 09:03:03;;;;;;;15.05;9.23;;;;;;;17.84;52.88;101654.88;5108020;27;20084;-66
2022/11/05 09:05:29;;;;;;;16.63;9.18;;;;;;;17.81;52.37;101658.19;5107992;28;20103;-67
2022/11/05 09:07:55;;;;;;;14.60;9.85;;;;;;;17.99;51.44;101657.00;5107935;28;20165;-67
2022/11/05 09:10:21;;;;;;;14.88;9.60;;;;;;;18.30;50.93;101653.47;5107456;28;20522;-67
2022/11/05 09:12:46;;;;;;;18.10;9.43;;;;;;;18.10;50.45;101650.47;5107772;28;20121;-66
2022/11/05 09:15:11;;;;;;;15.43;10.02;;;;;;;18.31;50.15;101651.53;5107064;28;20224;-66
2022/11/05 09:17:37;;;;;;;14.35;9.82;;;;;;;18.22;50.36;101651.16;5106078;28;20070;-66
2022/11/05 09:20:03;;;;;;;14.98;8.95;;;;;;;18.46;49.95;101648.91;5107257;28;20366;-66
2022/11/05 09:22:29;;;;;;;15.50;10.35;;;;;;;18.55;48.61;101650.09;5103414;28;20023;-67
2022/11/05 09:24:54;;;;;;;13.13;9.30;;;;;;;18.33;48.63;101649.31;5106883;28;20396;-66
2022/11/05 09:27:19;;;;;;;17.65;10.23;;;;;;;18.35;48.73;101653.53;5099603;28;20035;-67
2022/11/05 09:29:44;;;;;;;16.03;9.83;;;;;;;18.28;49.43;101643.69;5105246;28;20039;-65
2022/11/05 09:32:10;;;;;;;14.52;8.98;;;;;;;18.58;49.46;101648.72;5100632;28;20293;-66
2022/11/05 09:34:36;;;;;;;12.18;8.70;;;;;;;19.17;48.62;101652.28;5087389;28;20132;-65
2022/11/05 09:37:02;;;;;;;15.18;8.38;;;;;;;19.96;46.19;101651.25;5087580;28;20093;-65
2022/11/05 09:39:27;;;;;;;13.68;8.10;;;;;;;19.74;45.47;101666.53;5086687;28;20473;-66
2022/11/05 09:41:59;;;;;;;13.65;8.45;;;;;;;19.25;46.53;101666.78;5086592;28;20036;-65
2022/11/05 09:44:32;;;;;;;14.13;8.63;;;;;;;18.66;48.65;101663.00;5087314;28;20028;-65
2022/11/05 09:47:03;;;;;;;13.38;8.35;;;;;;;19.27;47.86;101662.63;5089953;28;20039;-65
2022/11/05 09:49:39;;;;;;;14.05;8.50;;;;;;;20.10;46.33;101662.75;5101171;28;20040;-65
2022/11/05 09:52:12;;;;;;;13.38;7.78;;;;;;;20.73;44.84;101665.38;5086809;28;20020;-65
2022/11/05 09:54:39;;;;;;;14.32;8.10;;;;;;;21.44;42.65;101670.06;5085479;28;20024;-65
2022/11/05 09:57:06;;;;;;;13.60;7.75;;;;;;;21.61;42.49;101669.75;5085980;28;20092;-65
2022/11/05 09:59:45;;;;;;;12.80;7.38;;;;;;;21.69;43.81;101672.75;5086445;28;20020;-66
2022/11/05 10:02:22;;;;;;;13.52;7.07;;;;;;;22.08;42.91;101671.19;5086597;28;20084;-66
2022/11/05 10:04:51;;;;;;;12.68;6.85;;;;;;;21.32;41.48;101675.97;5087049;28;20032;-66
2022/11/05 10:07:22;;;;;;;12.27;6.90;;;;;;;20.85;43.81;101679.06;5087281;28;20359;-66
2022/11/05 10:09:55;;;;;;;11.88;6.85;;;;;;;19.82;45.18;101685.50;5106545;28;20450;-66
2022/11/05 10:12:33;;;;;;;11.85;6.40;;;;;;;18.08;50.03;101692.41;5105850;28;20031;-65
2022/11/05 10:15:10;;;;;;;;;;;;;;;17.64;53.44;101686.88;5107052;28;20052;-65
2022/11/05 10:17:38;;;;;;;11.05;6.97;;;;;;;15.85;55.92;101690.41;5106637;28;20000;-66
2022/11/05 10:20:09;;;;;;;13.07;7.35;;;;;;;15.28;59.32;101701.31;5105716;28;20039;-66
2022/11/05 10:22:36;;;;;;;11.95;7.65;;;;;;;14.59;59.79;101705.69;5105661;28;20046;-65
2022/11/05 10:25:14;;;;;;;13.23;7.93;;;;;;;14.12;62.60;101705.50;5106008;28;20118;-65
2022/11/05 10:27:42;;;;;;;11.52;7.32;;;;;;;13.66;63.78;101695.88;5106792;28;20030;-66
2022/11/05 10:30:12;;;;;;;21.30;7.68;;;;;;;13.30;65.60;101704.97;5108287;28;20031;-65
2022/11/05 10:32:40;;;;;;;15.23;8.50;;;;;;;12.91;67.61;101702.31;5109520;28;20486;-65
2022/11/05 10:35:11;;;;;;;14.40;8.98;;;;;;;12.69;68.02;101710.16;5109994;28;20043;-65
2022/11/05 10:37:36;;;;;;;14.20;7.50;;;;;;;12.38;69.56;101710.16;5110527;27;20767;-65
2022/11/05 10:40:12;;;;;;;12.45;7.32;;;;;;;12.13;71.27;101712.84;5108791;28;20020;-65
2022/11/05 10:42:56;;;;;;;12.02;6.85;;;;;;;12.03;71.93;101707.81;5109217;28;20031;-65
2022/11/05 10:45:33;;;;;;;10.40;7.25;;;;;;;11.88;73.52;101716.34;5111359;28;20115;-65
2022/11/05 10:48:21;;;;;;;13.40;7.97;;;;;;;11.79;73.93;101709.38;5110860;28;20027;-65
2022/11/05 10:50:46;;;;;;;15.02;8.10;;;;;;;11.51;75.02;101706.09;5109862;28;20048;-65
2022/11/05 10:53:17;;;;;;;13.10;8.10;;;;;;;11.30;75.64;101704.41;5110133;28;20038;-66
2022/11/05 10:55:47;;;;;;;13.63;8.68;;;;;;;11.12;76.55;101700.44;5110004;28;20149;-66
2022/11/05 10:58:15;;;;;;;11.98;8.35;;;;;;;10.96;77.83;101695.41;5108520;28;20043;-65
2022/11/05 11:01:02;;;;;;;13.95;7.97;;;;;;;10.92;77.92;101702.38;5111008;28;20070;-65
2022/11/05 11:03:37;;;;;;;14.73;9.32;;;;;;;10.87;77.25;101707.66;5109268;28;20042;-66
2022/11/05 11:06:10;;;;;;;15.18;8.40;;;;;;;10.79;79.07;101703.19;5110510;28;20099;-66
2022/11/05 11:08:36;;;;;;;13.43;8.52;;;;;;;10.89;80.34;101709.13;5110133;28;20039;-65
2022/11/05 11:11:05;;;;;;;17.10;8.95;;;;;;;10.91;79.28;101701.53;5109709;28;20023;-65
2022/11/05 11:13:50;;;;;;;15.18;7.95;;;;;;;11.03;78.61;101703.63;5110695;28;20444;-66
2022/11/05 11:16:22;;;;;;;14.82;8.35;;;;;;;11.14;79.08;101700.22;5109305;28;20039;-66
2022/11/05 11:18:59;;;;;;;15.65;8.57;;;;;;;11.21;78.26;101697.47;5110900;28;20406;-66
2022/11/05 11:21:26;;;;;;;13.20;8.43;;;;;;;11.19;77.40;101692.19;5110863;28;20427;-66
2022/11/05 11:24:05;;;;;;;13.10;8.32;;;;;;;11.15;78.14;101693.66;5109630;28;20683;-66
2022/11/05 11:26:36;;;;;;;15.02;9.00;;;;;;;11.18;78.35;101691.34;5109799;28;20106;-66
2022/11/05 11:29:19;;;;;;;14.63;8.85;;;;;;;11.38;78.12;101693.19;5109915;28;20043;-66
2022/11/05 11:31:44;;;;;;;14.65;8.32;;;;;;;11.47;77.06;101688.31;5110925;28;20072;-66
2022/11/05 11:34:27;;;;;;;15.73;8.48;;;;;;;11.56;77.10;101676.03;5110025;28;20440;-66
2022/11/05 11:37:07;;;;;;;13.20;8.90;;;;;;;11.62;76.38;101683.41;5107832;28;20072;-66
2022/11/05 11:39:32;;;;;;;15.55;9.02;;;;;;;11.90;74.74;101675.66;5107776;28;20529;-66
2022/11/05 11:42:04;;;;;;;14.30;9.18;;;;;;;12.44;72.86;101690.00;5106457;28;20101;-66
2022/11/05 11:44:34;;;;;;;12.13;8.88;;;;;;;13.28;71.10;101683.16;5108161;28;20074;-66
2022/11/05 11:47:03;;;;;;;16.85;9.45;;;;;;;13.42;68.32;101681.06;5107870;27;20059;-66
2022/11/05 11:49:44;;;;;;;13.18;8.60;;;;;;;13.31;69.54;101679.06;5107861;27;20053;-66
2022/11/05 11:52:22;;;;;;;12.77;7.93;;;;;;;13.91;67.90;101680.06;5107921;28;20507;-66
2022/11/05 11:54:49;;;;;;;13.38;8.27;;;;;;;15.10;65.11;101674.59;5107667;28;20351;-66
2022/11/05 11:57:25;;;;;;;11.85;8.13;;;;;;;17.12;59.58;101678.03;5106778;28;20015;-66
2022/11/05 11:59:53;;;;;;;13.18;7.38;;;;;;;18.22;52.29;101675.34;5107156;28;20023;-66
2022/11/05 12:02:34;;;;;;;15.40;7.45;;;;;;;19.44;50.89;101665.22;5108192;28;20460;-67
2022/11/05 12:05:07;;;;;;;13.27;6.97;;;;;;;20.27;50.01;101661.66;5107745;28;20031;-66